RJTQ(METAR)
10/20 16:00
RJTQ 200700Z 03023G33KT 9999 SCT030 BKNXXX 21/15 Q1021 RMK A3017=
戻る
トップページへ戻る
IMOC Co,.Ltd.